Time;durP1;ratioP1;P1;durP2;ratioP2;P2;SDS_P1;SDS_P2;PMS_P1;PMS_P2;Temp;Humidity;BMP_temperature;BMP_pressure;BME280_temperature;BME280_humidity;BME280_pressure;Samples;Min_cycle;Max_cycle;Signal;HPM_P1;HPM_P2
2022/01/10 00:01:08;;;;;;;17.27;3.20;;;3.90;99.90;;;;;;5061940;28;20036;-91
2022/01/10 00:03:35;;;;;;;21.70;3.35;;;3.80;99.90;;;;;;5062124;28;20396;-90
2022/01/10 00:06:00;;;;;;;18.92;3.00;;;5.40;99.90;;;;;;5061715;28;20109;-90
2022/01/10 00:08:26;;;;;;;17.60;3.33;;;5.50;99.90;;;;;;5061405;28;20044;-91
2022/01/10 00:10:53;;;;;;;31.38;3.50;;;3.70;99.90;;;;;;5060846;28;20094;-91
2022/01/10 00:13:19;;;;;;;16.42;2.53;;;3.60;99.90;;;;;;5077446;28;20135;-91
2022/01/10 00:15:46;;;;;;;44.33;3.72;;;3.50;99.90;;;;;;5061280;28;20079;-91
2022/01/10 00:18:12;;;;;;;25.73;3.63;;;7.00;99.90;;;;;;5061218;28;20036;-91
2022/01/10 00:20:39;;;;;;;20.73;3.08;;;5.40;99.90;;;;;;5061326;28;20066;-91
2022/01/10 00:23:06;;;;;;;24.00;3.75;;;5.30;99.90;;;;;;5061492;28;20067;-90
2022/01/10 00:25:32;;;;;;;17.73;2.83;;;3.30;99.90;;;;;;5061056;28;20113;-91
2022/01/10 00:27:58;;;;;;;19.08;3.92;;;3.20;99.90;;;;;;5060952;28;20048;-90
2022/01/10 00:30:25;;;;;;;13.63;2.78;;;2.40;99.90;;;;;;5061218;28;20098;-91
2022/01/10 00:32:52;;;;;;;17.30;3.72;;;5.10;99.90;;;;;;5060936;28;20040;-89
2022/01/10 00:35:18;;;;;;;29.15;3.40;;;1.80;99.90;;;;;;5060730;28;20051;-90
2022/01/10 00:37:44;;;;;;;32.55;4.88;;;4.40;99.90;;;;;;5061087;28;20039;-91
2022/01/10 00:40:13;;;;;;;20.38;4.10;;;4.50;99.90;;;;;;5060060;28;20185;-91
2022/01/10 00:42:39;;;;;;;16.85;3.65;;;2.80;99.90;;;;;;5061029;28;20428;-91
2022/01/10 00:45:17;;;;;;;26.63;3.95;;;5.30;99.90;;;;;;5060499;28;20074;-90
2022/01/10 00:47:46;;;;;;;22.23;3.75;;;3.00;99.90;;;;;;5061108;28;20495;-90
2022/01/10 00:50:12;;;;;;;17.90;3.25;;;5.80;99.90;;;;;;5060805;28;20040;-91
2022/01/10 00:52:38;;;;;;;24.42;3.58;;;3.10;99.90;;;;;;5060693;28;20044;-91
2022/01/10 00:55:04;;;;;;;25.15;3.47;;;3.60;99.90;;;;;;5060761;28;20054;-90
2022/01/10 00:57:30;;;;;;;20.65;3.20;;;3.10;99.90;;;;;;5060889;28;20036;-90
2022/01/10 00:59:56;;;;;;;820.55;37.63;;;2.90;99.90;;;;;;5060356;28;20044;-90
2022/01/10 01:02:22;;;;;;;30.95;3.85;;;2.90;99.90;;;;;;5060146;28;20051;-91
2022/01/10 01:04:51;;;;;;;21.00;3.50;;;5.60;99.90;;;;;;5077405;28;20051;-91
2022/01/10 01:07:17;;;;;;;29.13;4.65;;;2.50;99.90;;;;;;5060743;28;20080;-91
2022/01/10 01:09:49;;;;;;;18.90;3.67;;;2.80;99.90;;;;;;5060576;28;20044;-91
2022/01/10 01:12:28;;;;;;;21.10;4.82;;;3.90;99.90;;;;;;5077895;28;20071;-91
2022/01/10 01:14:56;;;;;;;23.70;4.38;;;2.80;99.90;;;;;;5060610;28;20036;-92
2022/01/10 01:20:10;;;;;;;18.88;3.45;;;2.70;99.90;;;;;;5076645;28;20040;-91
2022/01/10 01:25:20;;;;;;;148.60;8.60;;;5.50;99.90;;;;;;5077264;28;20116;-90
2022/01/10 01:27:49;;;;;;;25.00;3.67;;;5.00;99.90;;;;;;5060185;28;20040;-91
2022/01/10 01:30:15;;;;;;;18.58;3.65;;;2.30;99.90;;;;;;5060805;28;20384;-90
2022/01/10 01:32:40;;;;;;;17.27;3.72;;;2.50;99.90;;;;;;5060369;28;20042;-91
2022/01/10 01:35:07;;;;;;;15.32;3.70;;;2.10;99.90;;;;;;5060410;28;20040;-91
2022/01/10 01:37:36;;;;;;;20.20;3.83;;;2.20;99.90;;;;;;5060353;28;20056;-91
2022/01/10 01:40:04;;;;;;;21.70;4.20;;;2.40;99.90;;;;;;5060091;28;20056;-91
2022/01/10 01:42:39;;;;;;;13.57;3.50;;;2.40;99.90;;;;;;5060206;28;20047;-90
2022/01/10 01:45:07;;;;;;;17.35;4.57;;;2.40;99.90;;;;;;5060500;28;20048;-90
2022/01/10 01:47:33;;;;;;;37.47;4.72;;;2.50;99.90;;;;;;5060810;28;20396;-91
2022/01/10 01:50:00;;;;;;;19.67;4.10;;;2.50;99.90;;;;;;5060403;28;20088;-91
2022/01/10 01:52:27;;;;;;;12.73;3.53;;;2.50;99.90;;;;;;5060590;28;20044;-90
2022/01/10 01:54:54;;;;;;;33.47;4.53;;;2.60;99.90;;;;;;5060742;28;20051;-91
2022/01/10 01:57:20;;;;;;;30.27;4.57;;;2.50;99.90;;;;;;5063080;28;20044;-90
2022/01/10 01:59:46;;;;;;;26.15;4.68;;;5.20;99.90;;;;;;5064276;28;20036;-91
2022/01/10 02:02:14;;;;;;;33.08;5.03;;;3.20;99.90;;;;;;5064593;28;20509;-91
2022/01/10 02:04:41;;;;;;;22.45;5.53;;;2.60;99.90;;;;;;5064470;28;20040;-90
2022/01/10 02:07:06;;;;;;;20.98;5.15;;;3.90;99.90;;;;;;5064499;28;20047;-91
2022/01/10 02:09:32;;;;;;;28.27;5.13;;;2.60;99.90;;;;;;5064163;28;20047;-90
2022/01/10 02:11:58;;;;;;;25.33;5.13;;;2.50;99.90;;;;;;5064310;28;20134;-90
2022/01/10 02:14:24;;;;;;;31.88;4.82;;;3.10;99.90;;;;;;5063939;28;20152;-90
2022/01/10 02:16:56;;;;;;;25.05;4.65;;;2.40;99.90;;;;;;5064117;28;20040;-90
2022/01/10 02:19:23;;;;;;;50.55;5.32;;;5.10;99.90;;;;;;5064001;28;20492;-89
2022/01/10 02:21:50;;;;;;;18.88;4.22;;;2.30;99.90;;;;;;5062947;28;20051;-89
2022/01/10 02:24:16;;;;;;;14.65;3.42;;;2.20;99.90;;;;;;5063844;28;20051;-89
2022/01/10 02:26:48;;;;;;;14.35;3.85;;;2.20;99.90;;;;;;5063636;28;20483;-89
2022/01/10 02:29:16;;;;;;;18.65;3.45;;;2.10;99.90;;;;;;5062779;28;20044;-90
2022/01/10 02:31:43;;;;;;;15.90;4.40;;;2.10;99.90;;;;;;5080291;28;20457;-90
2022/01/10 02:34:09;;;;;;;24.40;4.47;;;2.00;99.90;;;;;;5064289;28;20044;-90
2022/01/10 02:36:36;;;;;;;19.10;4.60;;;3.00;99.90;;;;;;5064034;28;20040;-90
2022/01/10 02:39:08;;;;;;;26.05;4.80;;;5.20;99.90;;;;;;5063581;28;20052;-90
2022/01/10 02:41:36;;;;;;;22.92;5.88;;;2.10;99.90;;;;;;5062520;28;20048;-90
2022/01/10 02:44:05;;;;;;;27.50;6.05;;;2.90;99.90;;;;;;5063725;28;20048;-91
2022/01/10 02:46:34;;;;;;;29.25;5.50;;;2.30;99.90;;;;;;5063999;28;20051;-90
2022/01/10 02:49:01;;;;;;;21.33;6.32;;;3.90;99.90;;;;;;5063954;28;20044;-91
2022/01/10 02:51:26;;;;;;;21.70;6.43;;;4.70;99.90;;;;;;5063672;28;20044;-90
2022/01/10 02:53:52;;;;;;;17.38;5.47;;;4.90;99.90;;;;;;5063699;28;20510;-90
2022/01/10 02:56:17;;;;;;;26.25;5.50;;;4.50;99.90;;;;;;5063362;28;20527;-90
2022/01/10 02:58:43;;;;;;;26.67;5.53;;;5.30;99.90;;;;;;5062894;28;20036;-91
2022/01/10 03:01:09;;;;;;;32.00;5.03;;;4.60;99.90;;;;;;5062892;28;20048;-90
2022/01/10 03:03:35;;;;;;;21.73;5.68;;;2.30;99.90;;;;;;5063728;28;20054;-89
2022/01/10 03:06:01;;;;;;;34.33;5.63;;;2.50;99.90;;;;;;5063198;28;20075;-90
2022/01/10 03:08:29;;;;;;;30.90;5.95;;;2.50;99.90;;;;;;5061775;28;20044;-90
2022/01/10 03:10:55;;;;;;;19.20;5.70;;;;;;;;;;5063246;28;20404;-91
2022/01/10 03:13:21;;;;;;;15.18;5.03;;;2.40;99.90;;;;;;5063444;28;20048;-90
2022/01/10 03:15:47;;;;;;;20.98;5.00;;;2.40;99.90;;;;;;5063647;28;20392;-90
2022/01/10 03:18:13;;;;;;;15.02;4.55;;;5.30;99.90;;;;;;5063116;28;20051;-89
2022/01/10 03:20:39;;;;;;;24.88;5.72;;;2.20;99.90;;;;;;5062107;28;20052;-89
2022/01/10 03:23:05;;;;;;;19.45;4.47;;;2.50;99.90;;;;;;5062333;28;20056;-90
2022/01/10 03:25:31;;;;;;;13.10;4.80;;;3.00;99.90;;;;;;5062233;28;20039;-90
2022/01/10 03:27:57;;;;;;;22.75;4.90;;;1.80;99.90;;;;;;5062614;28;20047;-90
2022/01/10 03:30:23;;;;;;;16.02;4.45;;;2.10;99.90;;;;;;5062144;28;20040;-89
2022/01/10 03:32:51;;;;;;;25.67;4.78;;;1.80;99.90;;;;;;5062245;28;20051;-90
2022/01/10 03:35:17;;;;;;;22.17;4.35;;;4.80;99.90;;;;;;5062156;28;20600;-91
2022/01/10 03:37:43;;;;;;;32.28;4.47;;;-0.60;99.90;;;;;;5061999;28;20063;-90
2022/01/10 03:40:10;;;;;;;17.02;4.28;;;;;;;;;;5062918;28;20039;-89
2022/01/10 03:42:37;;;;;;;16.38;4.07;;;1.50;99.90;;;;;;5062187;28;20057;-90
2022/01/10 03:45:04;;;;;;;16.10;4.10;;;-0.90;99.90;;;;;;5061832;28;20522;-89
2022/01/10 03:47:30;;;;;;;21.98;4.53;;;1.50;99.90;;;;;;5062146;28;20040;-89
2022/01/10 03:49:56;;;;;;;17.70;4.95;;;1.50;99.90;;;;;;5062034;28;20047;-90
2022/01/10 03:52:23;;;;;;;21.23;4.95;;;1.50;99.90;;;;;;5062183;28;20036;-90
2022/01/10 03:54:49;;;;;;;14.95;4.88;;;1.50;99.90;;;;;;5062118;28;20052;-89
2022/01/10 03:57:14;;;;;;;16.95;4.68;;;1.40;99.90;;;;;;5062036;28;20412;-89
2022/01/10 03:59:40;;;;;;;17.58;4.95;;;1.30;99.90;;;;;;5061811;28;20083;-88
2022/01/10 04:02:06;;;;;;;23.75;4.50;;;4.00;99.90;;;;;;5061718;28;20051;-89
2022/01/10 04:04:35;;;;;;;19.45;5.55;;;1.20;99.90;;;;;;5061747;28;20044;-89
2022/01/10 04:07:00;;;;;;;27.63;5.70;;;1.10;99.90;;;;;;5061347;28;20098;-88
2022/01/10 04:09:26;;;;;;;560.17;23.35;;;1.20;99.90;;;;;;5061092;28;20040;-88
2022/01/10 04:11:52;;;;;;;22.48;6.43;;;;;;;;;;5060629;28;20071;-88
2022/01/10 04:14:18;;;;;;;16.48;6.18;;;1.50;99.90;;;;;;5060894;28;20094;-88
2022/01/10 04:16:43;;;;;;;25.73;5.80;;;5.00;99.90;;;;;;5061074;28;20076;-88
2022/01/10 04:19:09;;;;;;;40.80;6.00;;;2.50;99.90;;;;;;5060850;28;20571;-89
2022/01/10 04:21:35;;;;;;;32.42;7.43;;;1.40;99.90;;;;;;5060902;28;20392;-88
2022/01/10 04:24:01;;;;;;;32.83;8.02;;;4.60;99.90;;;;;;5060889;28;20086;-89
2022/01/10 04:26:27;;;;;;;41.13;7.25;;;1.60;99.90;;;;;;5060762;28;20048;-88
2022/01/10 04:28:52;;;;;;;22.63;7.38;;;1.40;99.90;;;;;;5060649;28;20400;-89
2022/01/10 04:31:18;;;;;;;28.30;8.80;;;1.60;99.90;;;;;;5060619;28;20040;-89
2022/01/10 04:33:44;;;;;;;45.03;7.68;;;1.50;99.90;;;;;;5060388;28;20140;-88
2022/01/10 04:36:11;;;;;;;42.40;8.15;;;4.70;99.90;;;;;;5060106;28;20041;-88
2022/01/10 04:38:42;;;;;;;34.67;7.90;;;2.20;99.90;;;;;;5076829;28;20059;-88
2022/01/10 04:41:11;;;;;;;47.17;7.82;;;1.70;99.90;;;;;;5059733;28;20139;-88
2022/01/10 04:43:38;;;;;;;63.55;8.35;;;1.40;99.90;;;;;;5075375;28;20048;-88
2022/01/10 04:46:07;;;;;;;143.68;10.25;;;1.30;99.90;;;;;;5059466;28;20040;-89
2022/01/10 04:48:35;;;;;;;127.32;10.50;;;1.30;99.90;;;;;;5060497;28;20043;-88
2022/01/10 04:51:12;;;;;;;177.35;15.60;;;1.30;99.90;;;;;;5060148;28;20392;-88
2022/01/10 04:53:43;;;;;;;97.60;10.27;;;1.30;99.90;;;;;;5059320;28;20059;-88
2022/01/10 04:56:12;;;;;;;47.97;8.52;;;1.30;99.90;;;;;;5059984;28;20047;-87
2022/01/10 04:58:39;;;;;;;363.25;27.48;;;1.10;99.90;;;;;;5058829;28;20044;-87
2022/01/10 05:01:06;;;;;;;35.58;10.57;;;1.20;99.90;;;;;;5076185;28;20040;-88
2022/01/10 05:03:34;;;;;;;73.05;11.75;;;1.20;99.90;;;;;;5059193;28;20044;-88
2022/01/10 05:06:01;;;;;;;144.75;12.50;;;1.20;99.90;;;;;;5059613;28;20086;-89
2022/01/10 05:08:29;;;;;;;159.55;12.38;;;1.20;99.90;;;;;;5059109;28;20048;-89
2022/01/10 05:10:57;;;;;;;53.03;11.65;;;1.20;99.90;;;;;;5059788;28;20039;-88
2022/01/10 05:13:25;;;;;;;138.00;12.52;;;1.20;99.90;;;;;;5059865;28;20060;-88
2022/01/10 05:18:46;;;;;;;359.40;14.90;;;1.10;99.90;;;;;;5076428;28;20058;-88
2022/01/10 05:21:17;;;;;;;383.80;16.30;;;1.10;99.90;;;;;;5059631;28;20041;-88
2022/01/10 05:23:43;;;;;;;281.33;15.38;;;1.10;99.90;;;;;;5059599;28;20040;-89
2022/01/10 05:26:11;;;;;;;315.98;18.27;;;1.10;99.90;;;;;;5075858;28;20058;-88
2022/01/10 05:28:38;;;;;;;287.92;16.38;;;1.10;99.90;;;;;;5059190;28;20040;-88
2022/01/10 05:31:07;;;;;;;270.90;15.10;;;1.00;99.90;;;;;;5058668;28;20044;-88
2022/01/10 05:33:32;;;;;;;393.02;16.30;;;0.90;99.90;;;;;;5058868;28;20040;-88
2022/01/10 05:36:01;;;;;;;440.17;20.85;;;3.20;99.90;;;;;;5059720;28;20039;-88
2022/01/10 05:38:27;;;;;;;388.73;18.15;;;0.80;99.90;;;;;;5059132;28;20082;-88
2022/01/10 05:40:56;;;;;;;426.58;18.88;;;3.40;99.90;;;;;;5058469;28;20087;-88
2022/01/10 05:43:24;;;;;;;410.65;19.90;;;1.00;99.90;;;;;;5058756;28;20051;-88
2022/01/10 05:45:52;;;;;;;365.27;18.38;;;1.00;99.90;;;;;;5058779;28;20068;-87
2022/01/10 05:48:25;;;;;;;368.83;17.88;;;1.00;99.90;;;;;;5075560;28;20522;-88
2022/01/10 05:50:54;;;;;;;249.95;14.52;;;1.00;99.90;;;;;;5058437;28;20044;-87
2022/01/10 05:53:21;;;;;;;248.88;17.75;;;1.00;99.90;;;;;;5074047;28;20044;-87
2022/01/10 05:55:49;;;;;;;161.02;14.45;;;0.90;99.90;;;;;;5092441;28;20075;-88
2022/01/10 05:58:15;;;;;;;148.38;13.05;;;1.00;99.90;;;;;;5058273;28;20123;-88
2022/01/10 06:00:42;;;;;;;178.82;14.32;;;0.80;99.90;;;;;;5058689;28;20103;-88
2022/01/10 06:03:11;;;;;;;219.50;15.52;;;2.80;99.90;;;;;;5075375;28;20071;-88
2022/01/10 06:05:38;;;;;;;186.38;15.02;;;3.40;99.90;;;;;;5059477;28;20055;-88
2022/01/10 06:08:05;;;;;;;211.18;15.57;;;1.00;99.90;;;;;;5075650;28;20420;-88
2022/01/10 06:10:33;;;;;;;181.35;13.35;;;0.90;99.90;;;;;;5059400;28;20389;-88
2022/01/10 06:13:02;;;;;;;264.48;16.45;;;0.90;99.90;;;;;;5058911;28;20056;-88
2022/01/10 06:15:30;;;;;;;256.58;16.80;;;0.90;99.90;;;;;;5058372;28;20135;-88
2022/01/10 06:17:58;;;;;;;239.02;15.02;;;0.70;99.90;;;;;;5058868;28;20032;-88
2022/01/10 06:20:25;;;;;;;666.72;31.25;;;0.60;99.90;;;;;;5075177;28;20072;-87
2022/01/10 06:22:51;;;;;;;258.73;15.48;;;0.60;99.90;;;;;;5058831;28;20419;-88
2022/01/10 06:25:21;;;;;;;185.48;13.88;;;3.50;99.90;;;;;;5058168;28;20048;-88
2022/01/10 06:27:49;;;;;;;232.38;17.13;;;0.60;99.90;;;;;;5058928;28;20060;-88
2022/01/10 06:30:18;;;;;;;202.43;15.30;;;1.40;99.90;;;;;;5058185;28;20059;-88
2022/01/10 06:32:47;;;;;;;217.70;14.55;;;0.50;99.90;;;;;;5058419;28;20044;-88
2022/01/10 06:35:13;;;;;;;118.80;13.00;;;0.70;99.90;;;;;;5057957;28;20113;-88
2022/01/10 06:37:40;;;;;;;156.25;15.00;;;0.70;99.90;;;;;;5058660;28;20130;-88
2022/01/10 06:40:07;;;;;;;155.95;13.15;;;0.40;99.90;;;;;;5049305;28;20048;-87
2022/01/10 06:42:33;;;;;;;167.98;14.38;;;0.60;99.90;;;;;;5058533;28;20113;-87
2022/01/10 06:44:59;;;;;;;1999.90;445.20;;;0.40;99.90;;;;;;5061746;28;20086;-87
2022/01/10 06:47:25;;;;;;;153.35;14.27;;;2.40;99.90;;;;;;5061985;28;20040;-87
2022/01/10 06:49:50;;;;;;;270.48;19.38;;;0.80;99.90;;;;;;5061760;28;20093;-88
2022/01/10 06:52:16;;;;;;;271.23;19.75;;;3.00;99.90;;;;;;5061721;28;20408;-88
2022/01/10 06:54:42;;;;;;;248.00;17.55;;;0.50;99.90;;;;;;5061954;28;20114;-88
2022/01/10 06:57:08;;;;;;;204.50;16.15;;;0.20;99.90;;;;;;5061443;28;20448;-87
2022/01/10 06:59:35;;;;;;;251.90;18.13;;;0.30;99.90;;;;;;5060983;28;20032;-87
2022/01/10 07:02:01;;;;;;;371.27;23.38;;;0.20;99.90;;;;;;5066005;28;20055;-88
2022/01/10 07:04:28;;;;;;;319.38;17.35;;;0.30;99.90;;;;;;5061890;28;20508;-88
2022/01/10 07:06:55;;;;;;;295.63;18.52;;;0.50;99.90;;;;;;5061493;28;20036;-87
2022/01/10 07:09:21;;;;;;;237.88;17.05;;;3.50;99.90;;;;;;5061707;28;20048;-87
2022/01/10 07:11:48;;;;;;;292.73;18.63;;;0.40;99.90;;;;;;5061127;28;20036;-87
2022/01/10 07:14:16;;;;;;;289.30;18.30;;;0.70;99.90;;;;;;5061345;28;20044;-84
2022/01/10 07:16:43;;;;;;;199.70;15.40;;;0.60;99.90;;;;;;5059933;28;20054;-84
2022/01/10 07:19:10;;;;;;;150.95;16.05;;;0.30;99.90;;;;;;5065089;28;20083;-85
2022/01/10 07:21:39;;;;;;;154.45;14.93;;;0.30;99.90;;;;;;5073482;28;20059;-87
2022/01/10 07:24:07;;;;;;;121.28;14.65;;;0.60;99.90;;;;;;5081331;28;20048;-82
2022/01/10 07:26:35;;;;;;;153.52;16.75;;;0.30;99.90;;;;;;5077432;28;20040;-84
2022/01/10 07:29:06;;;;;;;131.68;17.63;;;1.50;99.90;;;;;;5063252;28;20124;-81
2022/01/10 07:31:35;;;;;;;700.63;49.05;;;0.10;99.90;;;;;;5080847;28;20063;-82
2022/01/10 07:34:04;;;;;;;171.45;17.17;;;0.20;99.90;;;;;;5077493;28;20074;-80
2022/01/10 07:36:29;;;;;;;150.95;15.63;;;0.30;99.90;;;;;;5086071;28;20055;-85
2022/01/10 07:38:55;;;;;;;218.93;17.70;;;0.00;99.90;;;;;;5077021;28;20040;-82
2022/01/10 07:41:22;;;;;;;228.00;16.67;;;0.10;99.90;;;;;;5094581;28;20055;-82
2022/01/10 07:43:50;;;;;;;208.93;18.13;;;0.10;99.90;;;;;;5102805;28;20095;-81
2022/01/10 07:46:18;;;;;;;317.38;20.08;;;0.80;99.90;;;;;;5076537;28;20048;-86
2022/01/10 07:48:44;;;;;;;224.15;18.35;;;3.20;99.90;;;;;;5075270;28;20071;-83
2022/01/10 07:51:11;;;;;;;178.70;18.30;;;0.20;99.90;;;;;;5076579;28;20373;-83
2022/01/10 07:53:38;;;;;;;177.18;18.50;;;-2.00;99.90;;;;;;5070901;28;20493;-84
2022/01/10 07:56:05;;;;;;;233.32;21.98;;;0.10;99.90;;;;;;5093096;28;20040;-85
2022/01/10 07:58:34;;;;;;;243.55;19.52;;;0.30;99.90;;;;;;5076652;28;20052;-83
2022/01/10 08:01:05;;;;;;;154.05;17.67;;;-0.90;99.90;;;;;;5076183;28;20084;-83
2022/01/10 08:03:32;;;;;;;173.48;20.90;;;0.60;99.90;;;;;;5075116;28;20504;-84
2022/01/10 08:06:01;;;;;;;200.73;18.67;;;-0.20;99.90;;;;;;5087913;28;20056;-85
2022/01/10 08:08:28;;;;;;;234.25;19.77;;;-0.30;99.90;;;;;;5070987;28;20040;-83
2022/01/10 08:10:55;;;;;;;204.10;19.55;;;0.00;99.90;;;;;;5077627;28;20039;-84
2022/01/10 08:13:24;;;;;;;270.52;21.83;;;-0.30;99.90;;;;;;5075271;28;20056;-84
2022/01/10 08:15:52;;;;;;;135.77;17.13;;;0.40;99.90;;;;;;5094181;28;20068;-83
2022/01/10 08:18:20;;;;;;;88.60;15.68;;;0.10;99.90;;;;;;5080030;28;20055;-82
2022/01/10 08:20:46;;;;;;;200.88;19.30;;;2.30;99.90;;;;;;5080303;28;20119;-84
2022/01/10 08:23:15;;;;;;;197.50;19.55;;;0.20;99.90;;;;;;5076428;28;20090;-83
2022/01/10 08:25:41;;;;;;;215.00;20.17;;;;;;;;;;5091081;28;20067;-83
2022/01/10 08:28:08;;;;;;;151.60;17.95;;;0.00;99.90;;;;;;5073949;28;20047;-86
2022/01/10 08:30:35;;;;;;;238.75;21.05;;;-0.10;99.90;;;;;;5080380;28;20122;-84
2022/01/10 08:33:03;;;;;;;173.88;19.15;;;0.00;99.90;;;;;;5075164;28;20044;-83
2022/01/10 08:35:33;;;;;;;137.95;20.00;;;1.90;99.90;;;;;;5090744;28;20059;-83
2022/01/10 08:38:00;;;;;;;172.90;20.95;;;;;;;;;;5093849;28;20503;-82
2022/01/10 08:40:26;;;;;;;180.30;23.42;;;0.10;99.90;;;;;;5074728;28;20058;-82
2022/01/10 08:42:53;;;;;;;172.15;23.33;;;0.10;99.90;;;;;;5073946;28;20062;-82
2022/01/10 08:45:22;;;;;;;104.57;20.52;;;0.30;99.90;;;;;;5075074;28;20060;-83
2022/01/10 08:47:50;;;;;;;144.07;21.42;;;0.20;99.90;;;;;;5074713;28;20104;-83
2022/01/10 08:50:16;;;;;;;112.55;20.05;;;0.50;99.90;;;;;;5093064;28;20042;-84
2022/01/10 08:52:44;;;;;;;122.15;21.85;;;1.20;99.90;;;;;;5091890;28;20127;-84
2022/01/10 08:55:12;;;;;;;85.80;20.48;;;0.20;99.90;;;;;;5074759;28;20046;-82
2022/01/10 08:57:40;;;;;;;139.93;23.00;;;0.50;99.90;;;;;;5056535;28;20055;-80
2022/01/10 09:00:07;;;;;;;124.95;22.30;;;0.40;99.90;;;;;;5081614;28;20048;-81
2022/01/10 09:02:34;;;;;;;86.07;22.13;;;0.60;99.90;;;;;;5092385;28;20043;-82
2022/01/10 09:05:00;;;;;;;133.82;22.65;;;0.80;99.90;;;;;;5091605;28;20040;-79
2022/01/10 09:07:27;;;;;;;803.78;65.22;;;3.30;99.90;;;;;;5071824;28;20090;-79
2022/01/10 09:09:55;;;;;;;139.05;24.52;;;0.90;99.90;;;;;;5073116;28;20099;-79
2022/01/10 09:12:21;;;;;;;127.13;26.50;;;0.90;99.90;;;;;;5074473;28;20080;-79
2022/01/10 09:14:50;;;;;;;102.35;24.27;;;0.90;99.90;;;;;;5073516;28;20094;-79
2022/01/10 09:17:17;;;;;;;134.75;25.10;;;0.70;99.90;;;;;;5072250;28;20047;-81
2022/01/10 09:19:42;;;;;;;239.43;25.70;;;1.70;99.90;;;;;;5071268;28;20048;-84
2022/01/10 09:22:08;;;;;;;187.98;25.75;;;1.00;99.90;;;;;;5071749;28;20071;-84
2022/01/10 09:24:34;;;;;;;213.48;26.33;;;3.30;99.90;;;;;;5073392;28;20044;-83
2022/01/10 09:27:00;;;;;;;182.38;26.88;;;2.10;99.90;;;;;;5074694;28;20075;-83
2022/01/10 09:29:26;;;;;;;235.48;29.40;;;0.90;99.90;;;;;;5090780;28;20431;-82
2022/01/10 09:31:52;;;;;;;238.20;28.27;;;3.40;99.90;;;;;;5074429;28;20044;-83
2022/01/10 09:34:19;;;;;;;153.30;26.65;;;3.30;99.90;;;;;;5073887;28;20040;-82
2022/01/10 09:36:44;;;;;;;128.23;26.70;;;4.40;99.90;;;;;;5075725;28;20130;-82
2022/01/10 09:39:13;;;;;;;164.35;29.45;;;1.90;99.90;;;;;;5074606;28;20130;-83
2022/01/10 09:41:39;;;;;;;126.88;30.20;;;3.60;99.90;;;;;;5090960;28;20120;-83
2022/01/10 09:44:06;;;;;;;115.50;31.70;;;4.50;99.90;;;;;;5058849;28;20496;-82
2022/01/10 09:46:33;;;;;;;131.48;32.22;;;0.20;99.90;;;;;;5072448;28;20059;-82
2022/01/10 09:49:01;;;;;;;134.48;33.20;;;1.20;99.90;;;;;;5092751;28;20052;-82
2022/01/10 09:51:29;;;;;;;265.83;38.08;;;1.20;99.90;;;;;;5077738;28;20044;-83
2022/01/10 09:53:57;;;;;;;205.45;36.70;;;1.60;99.90;;;;;;5099877;28;20044;-83
2022/01/10 09:56:26;;;;;;;148.13;33.33;;;2.40;99.90;;;;;;5091288;28;20051;-85
2022/01/10 09:58:57;;;;;;;174.80;32.78;;;1.60;99.90;;;;;;5091026;28;20060;-84
2022/01/10 10:01:26;;;;;;;131.45;29.38;;;1.90;99.90;;;;;;5074432;28;20051;-84
2022/01/10 10:06:48;;;;;;;131.80;34.00;;;2.00;99.90;;;;;;5092462;28;20484;-80
2022/01/10 10:09:14;;;;;;;176.32;34.50;;;1.60;99.90;;;;;;5074394;28;22232;-82
2022/01/10 10:11:43;;;;;;;107.90;35.20;;;1.90;99.90;;;;;;5074481;28;20047;-82
2022/01/10 10:14:15;;;;;;;82.38;34.92;;;1.90;99.90;;;;;;5080642;28;20381;-82
2022/01/10 10:16:49;;;;;;;124.25;37.90;;;2.20;99.90;;;;;;5074377;28;20136;-81
2022/01/10 10:19:21;;;;;;;78.05;35.88;;;2.10;99.90;;;;;;5096783;28;20047;-81
2022/01/10 10:21:49;;;;;;;127.70;37.55;;;2.00;99.90;;;;;;5094934;28;20043;-81
2022/01/10 10:24:17;;;;;;;103.93;34.00;;;1.80;99.90;;;;;;5081031;28;20048;-81
2022/01/10 10:26:44;;;;;;;118.05;37.40;;;2.10;99.90;;;;;;5077427;28;20058;-81
2022/01/10 10:29:17;;;;;;;90.88;35.30;;;1.70;99.90;;;;;;5073188;28;20056;-81
2022/01/10 10:31:47;;;;;;;79.13;30.70;;;2.00;99.90;;;;;;5076643;28;20458;-82
2022/01/10 10:34:20;;;;;;;79.03;29.77;;;1.70;99.90;;;;;;5077437;28;20105;-83
2022/01/10 10:37:07;;;;;;;86.45;32.05;;;1.90;99.90;;;;;;5074364;28;22156;-81
2022/01/10 10:39:38;;;;;;;107.55;37.40;;;2.10;99.90;;;;;;5075506;28;20066;-81
2022/01/10 10:42:07;;;;;;;88.97;35.83;;;1.90;99.90;;;;;;5095684;28;20416;-81
2022/01/10 10:44:35;;;;;;;148.93;37.90;;;2.30;99.90;;;;;;5093928;28;20560;-84
2022/01/10 10:47:03;;;;;;;118.10;36.85;;;1.90;99.90;;;;;;5076969;28;20048;-81
2022/01/10 10:49:37;;;;;;;81.32;34.55;;;1.80;99.90;;;;;;5080760;28;20043;-83
2022/01/10 10:52:07;;;;;;;69.25;32.72;;;0.70;99.90;;;;;;5076002;28;20093;-81
2022/01/10 10:54:35;;;;;;;87.90;35.92;;;2.80;99.90;;;;;;5079263;28;20532;-82
2022/01/10 10:57:05;;;;;;;97.32;39.17;;;1.90;99.90;;;;;;5090483;28;20132;-82
2022/01/10 10:59:36;;;;;;;67.75;33.33;;;2.50;99.90;;;;;;5094538;28;20040;-82
2022/01/10 11:02:04;;;;;;;79.25;39.50;;;2.20;99.90;;;;;;5075769;28;20040;-86
2022/01/10 11:04:31;;;;;;;104.40;39.85;;;0.50;99.90;;;;;;5059270;28;20044;-83
2022/01/10 11:06:59;;;;;;;93.20;36.75;;;2.40;99.90;;;;;;5076544;28;20116;-82
2022/01/10 11:09:26;;;;;;;198.32;38.67;;;2.50;99.90;;;;;;5076784;28;20044;-84
2022/01/10 11:11:58;;;;;;;72.22;34.53;;;2.60;99.90;;;;;;5075486;28;20052;-81
2022/01/10 11:14:25;;;;;;;122.75;38.92;;;2.70;99.90;;;;;;5076964;28;20510;-82
2022/01/10 11:16:54;;;;;;;70.32;38.88;;;2.80;99.90;;;;;;5076376;28;20149;-81
2022/01/10 11:19:26;;;;;;;82.50;37.92;;;3.20;99.90;;;;;;5076161;28;20123;-83
2022/01/10 11:22:11;;;;;;;72.18;39.28;;;3.10;99.90;;;;;;5088847;28;20389;-83
2022/01/10 11:24:43;;;;;;;85.90;43.72;;;3.50;99.90;;;;;;5057343;28;20048;-81
2022/01/10 11:27:34;;;;;;;86.50;43.08;;;2.90;99.90;;;;;;5070401;28;20048;-82
2022/01/10 11:30:23;;;;;;;76.95;39.47;;;3.30;99.90;;;;;;5081962;28;20101;-81
2022/01/10 11:32:56;;;;;;;59.92;39.40;;;3.10;99.90;;;;;;5086022;28;20048;-83
2022/01/10 11:35:28;;;;;;;61.35;38.67;;;3.10;99.90;;;;;;5071549;28;20554;-82
2022/01/10 11:37:55;;;;;;;79.10;45.28;;;3.10;99.90;;;;;;5071313;28;20036;-82
2022/01/10 11:40:25;;;;;;;73.47;44.60;;;3.30;99.90;;;;;;5076900;28;20105;-83
2022/01/10 11:42:56;;;;;;;72.35;42.03;;;1.50;99.90;;;;;;5094207;28;20115;-82
2022/01/10 11:45:26;;;;;;;75.78;42.63;;;3.80;99.90;;;;;;5075565;28;20123;-83
2022/01/10 11:48:05;;;;;;;79.00;44.28;;;3.90;99.90;;;;;;5080934;28;20047;-83
2022/01/10 11:50:35;;;;;;;77.95;45.35;;;4.00;99.90;;;;;;5078773;28;20054;-83
2022/01/10 11:53:03;;;;;;;78.60;48.22;;;4.40;99.90;;;;;;5073208;28;20035;-83
2022/01/10 11:55:33;;;;;;;91.63;51.38;;;4.30;99.90;;;;;;5075034;28;20047;-83
2022/01/10 11:58:15;;;;;;;92.10;51.40;;;4.40;99.90;;;;;;5093512;28;20392;-84
2022/01/10 12:00:44;;;;;;;82.53;48.20;;;4.90;99.90;;;;;;5078887;28;20495;-83
2022/01/10 12:03:11;;;;;;;92.65;49.67;;;4.20;99.90;;;;;;5078345;28;20039;-83
2022/01/10 12:05:40;;;;;;;93.25;48.30;;;5.10;99.90;;;;;;5094186;28;20040;-83
2022/01/10 12:08:06;;;;;;;95.65;53.28;;;;;;;;;;5055494;28;20059;-81
2022/01/10 12:10:34;;;;;;;105.93;51.47;;;4.80;99.90;;;;;;5090842;28;20471;-84
2022/01/10 12:13:05;;;;;;;96.10;50.75;;;5.50;99.90;;;;;;5076536;28;20068;-81
2022/01/10 12:15:37;;;;;;;99.97;51.25;;;5.40;99.90;;;;;;5077201;28;20058;-82
2022/01/10 12:18:05;;;;;;;112.90;54.92;;;5.00;99.90;;;;;;5092872;28;20365;-82
2022/01/10 12:20:34;;;;;;;96.43;50.03;;;6.00;99.90;;;;;;5075780;28;20051;-82
2022/01/10 12:23:03;;;;;;;106.43;53.92;;;5.40;99.90;;;;;;5076065;28;20072;-82
2022/01/10 12:25:30;;;;;;;100.05;54.28;;;6.00;99.90;;;;;;5072877;28;20044;-84
2022/01/10 12:28:01;;;;;;;102.05;52.97;;;6.00;99.90;;;;;;5058471;28;20078;-82
2022/01/10 12:30:29;;;;;;;116.13;55.53;;;6.00;99.90;;;;;;5076079;28;20052;-83
2022/01/10 12:32:57;;;;;;;98.55;50.60;;;6.10;99.90;;;;;;5082146;28;20068;-83
2022/01/10 12:35:25;;;;;;;105.00;53.65;;;6.10;99.90;;;;;;5083698;28;20044;-85
2022/01/10 12:37:54;;;;;;;95.45;47.00;;;9.10;99.90;;;;;;5087609;28;20040;-84
2022/01/10 12:40:23;;;;;;;93.68;46.90;;;6.50;99.90;;;;;;5075283;28;20079;-83
2022/01/10 12:42:53;;;;;;;99.28;50.13;;;7.00;99.90;;;;;;5078528;28;20089;-82
2022/01/10 12:45:21;;;;;;;100.00;46.17;;;6.60;99.90;;;;;;5091232;28;20145;-82
2022/01/10 12:47:48;;;;;;;94.32;48.63;;;6.50;99.90;;;;;;5072595;28;20151;-83
2022/01/10 12:50:15;;;;;;;82.35;42.95;;;6.70;99.90;;;;;;5092990;28;20040;-83
2022/01/10 12:52:43;;;;;;;100.70;46.80;;;6.90;99.90;;;;;;5094686;28;20035;-83